Buckeye, Texas
Current Conditions -  °F | °C
As of 1:53 PM on Monday 22 Dec 2014 (Local Time) from KLBX Reporting Station
Clear Clear  
Wind Chill: 23°   Ceiling: Unl
Heat Index: 23°   Visibility: 10mi
Dew Point: 17°   Wind: 14mph
Humidity: 68%   Direction: 230°SW
Pressure: 29.67"   Gusts: 22mph
Location:  28.8997°N, 95.7887°W
Report Text: KLBX 221953Z AUTO 23012G19KT 10SM CLR 23/17 A2967 RMK AO2 SLP045 T02280167
Loading
Personal Weather Stations






























Interactive Weather Map New forecast layout! Learn more

10-Day Weather Forecast

Advertisements
Track Severe Weather on mobile